Las Isletillas, Argentina
Current Conditions -  °F | °C
As of 6:00 AM on Sunday 26 Oct 2014 (Local Time) from SAOC Reporting Station
Clear Clear  
Wind Chill: 75°   Ceiling: Unl
Heat Index: 75°   Visibility: 6mi
Dew Point: 54°   Wind: 17mph
Humidity: 47%   Direction: 340°NNW
Pressure: 29.74"   Gusts: 30mph
Location:  32.38°S, 63.78°W
Report Text: SAOC 260900Z 34015G26KT CAVOK 24/12 Q1007
Loading
Personal Weather Stations






























Interactive Weather Map
Tropical Storm Tracking
New forecast layout! Learn more

10-Day Weather Forecast

Advertisements
Track Severe Weather on mobile